Погода Альтаграсия Нортена 2 недели

Манагуа, Никарагуа

29 февраля-13 марта
  • 29февраля
    Сегодня
    +23°
    +35°
    Облачно с прояснениями
    ВремяПогодаТемператураВлажностьДавлениеВетер, м/сВероятность осадков
    00:00Ясно и безоблачно+25°C75 %756 мм4.2 м/с1 %
    03:00Ясно и безоблачно+24°C80 %755 мм3.0 м/с3 %
    06:00Облачно с прояснениями+23°C84 %756 мм2.6 м/с6 %
    09:00Практически безоблачно+28°C60 %757 мм5.5 м/с13 %
    12:00Небольшая облачность+33°C40 %755 мм6.9 м/с12 %
    15:00Облачно с прояснениями+34°C38 %753 мм7.0 м/с5 %
    18:00Ясно и безоблачно+31°C47 %753 мм5.7 м/с2 %
    21:00Ясно и безоблачно+28°C59 %755 мм4.8 м/с2 %
  • 01марта
    Пятница
    +23°
    +35°
    Облачно с прояснениями
    ВремяПогодаТемператураВлажностьДавлениеВетер, м/сВероятность осадков
    00:00Ясно и безоблачно+25°C73 %756 мм4.0 м/с2 %
    03:00Практически безоблачно+24°C81 %755 мм2.7 м/с13 %
    06:00Практически безоблачно+23°C81 %756 мм2.3 м/с19 %
    09:00Практически безоблачно+29°C60 %757 мм5.4 м/с15 %
    12:00Практически безоблачно+34°C39 %755 мм7.1 м/с8 %
    15:00Облачно с прояснениями+34°C44 %753 мм6.6 м/с8 %
    18:00Небольшая облачность+31°C53 %754 мм5.2 м/с6 %
    21:00Облачно с прояснениями+28°C63 %756 мм4.9 м/с2 %
  • 02марта
    Суббота
    +21°
    +35°
    Ясно и безоблачно
    ВремяПогодаТемператураВлажностьДавлениеВетер, м/сВероятность осадков
    00:00Облачно с прояснениями+25°C74 %756 мм4.0 м/с2 %
    03:00Практически безоблачно+24°C84 %755 мм2.6 м/с13 %
    06:00Практически безоблачно+23°C85 %757 мм2.3 м/с20 %
    09:00Небольшая облачность+29°C62 %758 мм5.3 м/с24 %
    12:00Ясно и безоблачно+34°C39 %756 мм6.5 м/с14 %
    15:00Ясно и безоблачно+35°C31 %753 мм7.0 м/с4 %
    18:00Ясно и безоблачно+32°C47 %754 мм4.4 м/с2 %
    21:00Ясно и безоблачно+28°C45 %756 мм4.5 м/с2 %
  • 03марта
    Воскресенье
    +21°
    +35°
    Ясно и безоблачно
    ВремяПогодаТемператураВлажностьДавлениеВетер, м/сВероятность осадков
    00:00Практически безоблачно+25°C66 %756 мм4.0 м/с2 %
    03:00Небольшая облачность+23°C80 %755 мм2.5 м/с5 %
    06:00Ясно и безоблачно+22°C89 %756 мм1.7 м/с7 %
    09:00Ясно и безоблачно+28°C61 %757 мм4.7 м/с10 %
    12:00Практически безоблачно+34°C38 %755 мм6.1 м/с2 %
    15:00Ясно и безоблачно+35°C31 %752 мм6.6 м/с2 %
    18:00Ясно и безоблачно+31°C47 %752 мм4.5 м/с2 %
    21:00Ясно и безоблачно+28°C60 %754 мм3.8 м/с2 %
  • 04марта
    Понедельник
    +22°
    +36°
    Ясно и безоблачно
    ВремяПогодаТемператураВлажностьДавлениеВетер, м/сВероятность осадков
    00:00Ясно и безоблачно+26°C76 %755 мм3.3 м/с2 %
    03:00Практически безоблачно+24°C85 %754 мм2.2 м/с19 %
    06:00Ясно и безоблачно+22°C89 %755 мм1.5 м/с19 %
    09:00Ясно и безоблачно+28°C59 %756 мм4.4 м/с17 %
    12:00Ясно и безоблачно+34°C33 %754 мм5.8 м/с3 %
    15:00Ясно и безоблачно+35°C34 %751 мм6.3 м/с3 %
    18:00Ясно и безоблачно+31°C46 %751 мм3.8 м/с2 %
    21:00Ясно и безоблачно+28°C60 %753 мм3.3 м/с2 %
Мы используем cookies
Соглашаюсь